sensor_id;sensor_type;location;lat;lon;timestamp;temperature;humidity
75170;SHT31;63749;49.186;9.222;2023-03-15T00:01:52;2.18;96.09
75170;SHT31;63749;49.186;9.222;2023-03-15T00:04:18;2.22;96.21
75170;SHT31;63749;49.186;9.222;2023-03-15T00:06:44;2.18;96.06
75170;SHT31;63749;49.186;9.222;2023-03-15T00:09:09;2.18;96.08
75170;SHT31;63749;49.186;9.222;2023-03-15T00:11:35;2.24;96.54
75170;SHT31;63749;49.186;9.222;2023-03-15T00:14:00;2.29;96.25
75170;SHT31;63749;49.186;9.222;2023-03-15T00:16:26;2.32;96.04
75170;SHT31;63749;49.186;9.222;2023-03-15T00:18:53;2.41;96.31
75170;SHT31;63749;49.186;9.222;2023-03-15T00:21:19;2.39;96.11
75170;SHT31;63749;49.186;9.222;2023-03-15T00:23:44;2.52;96.12
75170;SHT31;63749;49.186;9.222;2023-03-15T00:26:10;2.50;95.55
75170;SHT31;63749;49.186;9.222;2023-03-15T00:28:36;2.50;95.77
75170;SHT31;63749;49.186;9.222;2023-03-15T00:31:14;2.45;95.12
75170;SHT31;63749;49.186;9.222;2023-03-15T00:33:39;2.42;95.20
75170;SHT31;63749;49.186;9.222;2023-03-15T00:36:06;2.45;95.47
75170;SHT31;63749;49.186;9.222;2023-03-15T00:38:33;2.46;95.23
75170;SHT31;63749;49.186;9.222;2023-03-15T00:43:31;2.38;95.67
75170;SHT31;63749;49.186;9.222;2023-03-15T00:45:57;2.32;95.54
75170;SHT31;63749;49.186;9.222;2023-03-15T00:48:22;2.38;95.83
75170;SHT31;63749;49.186;9.222;2023-03-15T00:50:48;2.37;95.60
75170;SHT31;63749;49.186;9.222;2023-03-15T00:53:13;2.29;95.31
75170;SHT31;63749;49.186;9.222;2023-03-15T00:55:38;2.22;95.32
75170;SHT31;63749;49.186;9.222;2023-03-15T00:58:04;2.20;95.42
75170;SHT31;63749;49.186;9.222;2023-03-15T01:00:29;2.20;95.53
75170;SHT31;63749;49.186;9.222;2023-03-15T01:02:55;2.14;95.49
75170;SHT31;63749;49.186;9.222;2023-03-15T01:05:20;2.13;95.63
75170;SHT31;63749;49.186;9.222;2023-03-15T01:07:46;2.03;95.73
75170;SHT31;63749;49.186;9.222;2023-03-15T01:10:13;1.98;95.68
75170;SHT31;63749;49.186;9.222;2023-03-15T01:12:39;1.98;95.56
75170;SHT31;63749;49.186;9.222;2023-03-15T01:15:06;1.97;95.53
75170;SHT31;63749;49.186;9.222;2023-03-15T01:17:32;1.90;95.27
75170;SHT31;63749;49.186;9.222;2023-03-15T01:19:58;1.91;95.25
75170;SHT31;63749;49.186;9.222;2023-03-15T01:22:24;1.80;95.42
75170;SHT31;63749;49.186;9.222;2023-03-15T01:24:49;1.76;95.42
75170;SHT31;63749;49.186;9.222;2023-03-15T01:27:15;1.66;95.82
75170;SHT31;63749;49.186;9.222;2023-03-15T01:29:40;1.59;96.01
75170;SHT31;63749;49.186;9.222;2023-03-15T01:32:06;1.63;95.94
75170;SHT31;63749;49.186;9.222;2023-03-15T01:34:31;1.71;96.02
75170;SHT31;63749;49.186;9.222;2023-03-15T01:36:57;1.79;95.90
75170;SHT31;63749;49.186;9.222;2023-03-15T01:39:22;1.76;95.88
75170;SHT31;63749;49.186;9.222;2023-03-15T01:41:47;1.80;95.87
75170;SHT31;63749;49.186;9.222;2023-03-15T01:44:15;1.80;95.61
75170;SHT31;63749;49.186;9.222;2023-03-15T01:46:41;1.76;95.56
75170;SHT31;63749;49.186;9.222;2023-03-15T01:49:11;1.84;95.46
75170;SHT31;63749;49.186;9.222;2023-03-15T01:54:14;1.80;95.38
75170;SHT31;63749;49.186;9.222;2023-03-15T01:56:49;1.86;95.20
75170;SHT31;63749;49.186;9.222;2023-03-15T01:59:22;1.86;94.86
75170;SHT31;63749;49.186;9.222;2023-03-15T02:01:49;1.77;94.78
75170;SHT31;63749;49.186;9.222;2023-03-15T02:04:23;1.80;94.87
75170;SHT31;63749;49.186;9.222;2023-03-15T02:06:51;1.69;94.90
75170;SHT31;63749;49.186;9.222;2023-03-15T02:09:26;1.66;94.76
75170;SHT31;63749;49.186;9.222;2023-03-15T02:11:54;1.59;95.06
75170;SHT31;63749;49.186;9.222;2023-03-15T02:14:20;1.49;95.14
75170;SHT31;63749;49.186;9.222;2023-03-15T02:16:47;1.46;95.51
75170;SHT31;63749;49.186;9.222;2023-03-15T02:19:28;1.45;95.61
75170;SHT31;63749;49.186;9.222;2023-03-15T02:22:00;1.40;95.52
75170;SHT31;63749;49.186;9.222;2023-03-15T02:27:29;1.35;95.59
75170;SHT31;63749;49.186;9.222;2023-03-15T02:29:56;1.34;95.55
75170;SHT31;63749;49.186;9.222;2023-03-15T02:32:27;1.25;95.55
75170;SHT31;63749;49.186;9.222;2023-03-15T02:34:52;1.28;95.68
75170;SHT31;63749;49.186;9.222;2023-03-15T02:37:18;1.17;95.79
75170;SHT31;63749;49.186;9.222;2023-03-15T02:39:43;1.11;95.88
75170;SHT31;63749;49.186;9.222;2023-03-15T02:42:09;1.25;95.94
75170;SHT31;63749;49.186;9.222;2023-03-15T02:44:36;1.27;95.69
75170;SHT31;63749;49.186;9.222;2023-03-15T02:47:09;1.19;95.90
75170;SHT31;63749;49.186;9.222;2023-03-15T02:49:42;1.14;95.96
75170;SHT31;63749;49.186;9.222;2023-03-15T02:52:09;1.32;95.76
75170;SHT31;63749;49.186;9.222;2023-03-15T02:54:36;1.29;95.69
75170;SHT31;63749;49.186;9.222;2023-03-15T02:57:03;1.27;95.75
75170;SHT31;63749;49.186;9.222;2023-03-15T02:59:28;1.35;95.64
75170;SHT31;63749;49.186;9.222;2023-03-15T03:01:54;1.42;95.33
75170;SHT31;63749;49.186;9.222;2023-03-15T03:04:19;1.36;95.36
75170;SHT31;63749;49.186;9.222;2023-03-15T03:06:47;1.35;95.36
75170;SHT31;63749;49.186;9.222;2023-03-15T03:09:12;1.28;95.29
75170;SHT31;63749;49.186;9.222;2023-03-15T03:11:38;1.19;95.58
75170;SHT31;63749;49.186;9.222;2023-03-15T03:14:03;1.34;95.20
75170;SHT31;63749;49.186;9.222;2023-03-15T03:16:29;1.31;95.14
75170;SHT31;63749;49.186;9.222;2023-03-15T03:18:56;1.31;95.21
75170;SHT31;63749;49.186;9.222;2023-03-15T03:21:21;1.25;95.45
75170;SHT31;63749;49.186;9.222;2023-03-15T03:23:47;1.22;95.46
75170;SHT31;63749;49.186;9.222;2023-03-15T03:26:14;1.18;95.67
75170;SHT31;63749;49.186;9.222;2023-03-15T03:28:41;1.19;95.52
75170;SHT31;63749;49.186;9.222;2023-03-15T03:31:18;1.22;95.47
75170;SHT31;63749;49.186;9.222;2023-03-15T03:33:43;1.14;95.61
75170;SHT31;63749;49.186;9.222;2023-03-15T03:36:09;1.15;95.66
75170;SHT31;63749;49.186;9.222;2023-03-15T03:38:40;1.09;95.67
75170;SHT31;63749;49.186;9.222;2023-03-15T03:41:07;1.02;95.84
75170;SHT31;63749;49.186;9.222;2023-03-15T03:43:33;1.02;95.73
75170;SHT31;63749;49.186;9.222;2023-03-15T03:45:59;1.09;95.51
75170;SHT31;63749;49.186;9.222;2023-03-15T03:48:24;1.05;95.32
75170;SHT31;63749;49.186;9.222;2023-03-15T03:50:49;0.95;95.54
75170;SHT31;63749;49.186;9.222;2023-03-15T03:53:15;0.92;95.93
75170;SHT31;63749;49.186;9.222;2023-03-15T03:55:40;0.84;95.78
75170;SHT31;63749;49.186;9.222;2023-03-15T03:58:07;0.78;95.98
75170;SHT31;63749;49.186;9.222;2023-03-15T04:00:35;0.84;96.10
75170;SHT31;63749;49.186;9.222;2023-03-15T04:03:01;0.84;96.23
75170;SHT31;63749;49.186;9.222;2023-03-15T04:05:27;0.91;96.04
75170;SHT31;63749;49.186;9.222;2023-03-15T04:07:53;0.95;95.74
75170;SHT31;63749;49.186;9.222;2023-03-15T04:10:18;0.84;95.78
75170;SHT31;63749;49.186;9.222;2023-03-15T04:12:44;0.87;95.78
75170;SHT31;63749;49.186;9.222;2023-03-15T04:15:10;0.98;95.35
75170;SHT31;63749;49.186;9.222;2023-03-15T04:17:37;1.02;95.05
75170;SHT31;63749;49.186;9.222;2023-03-15T04:20:03;0.90;95.13
75170;SHT31;63749;49.186;9.222;2023-03-15T04:22:31;0.95;95.60
75170;SHT31;63749;49.186;9.222;2023-03-15T04:24:59;0.80;95.53
75170;SHT31;63749;49.186;9.222;2023-03-15T04:27:26;0.68;95.77
75170;SHT31;63749;49.186;9.222;2023-03-15T04:29:51;0.56;95.79
75170;SHT31;63749;49.186;9.222;2023-03-15T04:32:17;0.71;96.01
75170;SHT31;63749;49.186;9.222;2023-03-15T04:34:42;0.70;95.74
75170;SHT31;63749;49.186;9.222;2023-03-15T04:37:08;0.81;95.56
75170;SHT31;63749;49.186;9.222;2023-03-15T04:39:33;1.02;95.09
75170;SHT31;63749;49.186;9.222;2023-03-15T04:41:58;0.91;94.94
75170;SHT31;63749;49.186;9.222;2023-03-15T04:44:24;1.02;94.66
75170;SHT31;63749;49.186;9.222;2023-03-15T04:46:51;1.01;94.47
75170;SHT31;63749;49.186;9.222;2023-03-15T04:49:16;0.90;94.46
75170;SHT31;63749;49.186;9.222;2023-03-15T04:51:41;0.84;94.77
75170;SHT31;63749;49.186;9.222;2023-03-15T04:54:06;0.76;94.86
75170;SHT31;63749;49.186;9.222;2023-03-15T04:56:32;0.80;95.01
75170;SHT31;63749;49.186;9.222;2023-03-15T04:58:57;0.78;94.77
75170;SHT31;63749;49.186;9.222;2023-03-15T05:01:27;0.64;94.99
75170;SHT31;63749;49.186;9.222;2023-03-15T05:03:54;0.52;95.12
75170;SHT31;63749;49.186;9.222;2023-03-15T05:06:19;0.39;95.38
75170;SHT31;63749;49.186;9.222;2023-03-15T05:08:44;0.29;95.64
75170;SHT31;63749;49.186;9.222;2023-03-15T05:11:11;0.30;95.70
75170;SHT31;63749;49.186;9.222;2023-03-15T05:13:36;0.33;95.57
75170;SHT31;63749;49.186;9.222;2023-03-15T05:16:02;0.30;95.88
75170;SHT31;63749;49.186;9.222;2023-03-15T05:18:27;0.22;96.19
75170;SHT31;63749;49.186;9.222;2023-03-15T05:20:53;0.13;96.19
75170;SHT31;63749;49.186;9.222;2023-03-15T05:23:24;0.12;96.70
75170;SHT31;63749;49.186;9.222;2023-03-15T05:25:54;0.06;96.61
75170;SHT31;63749;49.186;9.222;2023-03-15T05:28:20;-0.01;96.49
75170;SHT31;63749;49.186;9.222;2023-03-15T05:30:46;0.01;96.67
75170;SHT31;63749;49.186;9.222;2023-03-15T05:33:12;-0.02;96.60
75170;SHT31;63749;49.186;9.222;2023-03-15T05:35:38;-0.05;96.79
75170;SHT31;63749;49.186;9.222;2023-03-15T05:38:03;-0.08;96.85
75170;SHT31;63749;49.186;9.222;2023-03-15T05:40:29;-0.09;96.90
75170;SHT31;63749;49.186;9.222;2023-03-15T05:42:55;-0.01;97.08
75170;SHT31;63749;49.186;9.222;2023-03-15T05:45:23;-0.02;97.18
75170;SHT31;63749;49.186;9.222;2023-03-15T05:47:49;0.06;97.23
75170;SHT31;63749;49.186;9.222;2023-03-15T05:50:23;0.12;96.98
75170;SHT31;63749;49.186;9.222;2023-03-15T05:52:50;0.23;96.82
75170;SHT31;63749;49.186;9.222;2023-03-15T05:55:16;0.29;96.58
75170;SHT31;63749;49.186;9.222;2023-03-15T05:57:42;0.32;96.53
75170;SHT31;63749;49.186;9.222;2023-03-15T06:00:07;0.45;96.58
75170;SHT31;63749;49.186;9.222;2023-03-15T06:02:34;0.49;96.14
75170;SHT31;63749;49.186;9.222;2023-03-15T06:04:59;0.52;95.90
75170;SHT31;63749;49.186;9.222;2023-03-15T06:07:24;0.61;95.68
75170;SHT31;63749;49.186;9.222;2023-03-15T06:09:50;0.66;95.31
75170;SHT31;63749;49.186;9.222;2023-03-15T06:12:16;0.71;95.06
75170;SHT31;63749;49.186;9.222;2023-03-15T06:14:41;0.74;95.05
75170;SHT31;63749;49.186;9.222;2023-03-15T06:17:07;1.05;95.89
75170;SHT31;63749;49.186;9.222;2023-03-15T06:19:32;1.21;94.32
75170;SHT31;63749;49.186;9.222;2023-03-15T06:21:57;1.27;93.56
75170;SHT31;63749;49.186;9.222;2023-03-15T06:24:23;1.34;92.90
75170;SHT31;63749;49.186;9.222;2023-03-15T06:26:49;1.43;92.83
75170;SHT31;63749;49.186;9.222;2023-03-15T06:29:14;1.45;93.08
75170;SHT31;63749;49.186;9.222;2023-03-15T06:31:41;1.50;92.97
75170;SHT31;63749;49.186;9.222;2023-03-15T06:34:06;1.52;92.32
75170;SHT31;63749;49.186;9.222;2023-03-15T06:36:32;1.79;92.37
75170;SHT31;63749;49.186;9.222;2023-03-15T06:38:58;1.71;92.21
75170;SHT31;63749;49.186;9.222;2023-03-15T06:41:23;2.04;92.02
75170;SHT31;63749;49.186;9.222;2023-03-15T06:43:52;2.72;98.45
75170;SHT31;63749;49.186;9.222;2023-03-15T06:46:17;2.45;93.51
75170;SHT31;63749;49.186;9.222;2023-03-15T06:48:42;2.39;92.21
75170;SHT31;63749;49.186;9.222;2023-03-15T06:51:08;2.63;93.14
75170;SHT31;63749;49.186;9.222;2023-03-15T06:53:33;2.66;91.41
75170;SHT31;63749;49.186;9.222;2023-03-15T06:55:59;3.66;90.04
75170;SHT31;63749;49.186;9.222;2023-03-15T06:58:24;3.79;87.58
75170;SHT31;63749;49.186;9.222;2023-03-15T07:00:50;3.68;88.18
75170;SHT31;63749;49.186;9.222;2023-03-15T07:03:16;3.68;87.90
75170;SHT31;63749;49.186;9.222;2023-03-15T07:05:52;3.59;87.43
75170;SHT31;63749;49.186;9.222;2023-03-15T07:08:19;3.37;87.52
75170;SHT31;63749;49.186;9.222;2023-03-15T07:10:45;3.32;87.80
75170;SHT31;63749;49.186;9.222;2023-03-15T07:13:13;3.16;87.51
75170;SHT31;63749;49.186;9.222;2023-03-15T07:15:38;3.13;87.74
75170;SHT31;63749;49.186;9.222;2023-03-15T07:18:04;3.16;89.63
75170;SHT31;63749;49.186;9.222;2023-03-15T07:20:29;3.18;88.85
75170;SHT31;63749;49.186;9.222;2023-03-15T07:22:55;3.11;86.63
75170;SHT31;63749;49.186;9.222;2023-03-15T07:25:21;3.18;86.67
75170;SHT31;63749;49.186;9.222;2023-03-15T07:27:49;3.26;87.15
75170;SHT31;63749;49.186;9.222;2023-03-15T07:30:15;3.34;86.25
75170;SHT31;63749;49.186;9.222;2023-03-15T07:32:41;3.41;87.54
75170;SHT31;63749;49.186;9.222;2023-03-15T07:35:06;3.45;86.00
75170;SHT31;63749;49.186;9.222;2023-03-15T07:37:32;3.55;85.64
75170;SHT31;63749;49.186;9.222;2023-03-15T07:39:57;3.62;85.28
75170;SHT31;63749;49.186;9.222;2023-03-15T07:42:24;3.66;84.85
75170;SHT31;63749;49.186;9.222;2023-03-15T07:44:49;3.75;84.93
75170;SHT31;63749;49.186;9.222;2023-03-15T07:47:15;3.76;84.58
75170;SHT31;63749;49.186;9.222;2023-03-15T07:49:40;3.81;83.58
75170;SHT31;63749;49.186;9.222;2023-03-15T07:52:06;3.82;82.02
75170;SHT31;63749;49.186;9.222;2023-03-15T07:54:32;3.95;81.39
75170;SHT31;63749;49.186;9.222;2023-03-15T07:56:58;4.16;82.22
75170;SHT31;63749;49.186;9.222;2023-03-15T07:59:24;4.58;80.84
75170;SHT31;63749;49.186;9.222;2023-03-15T08:01:49;4.78;80.22
75170;SHT31;63749;49.186;9.222;2023-03-15T08:04:14;4.91;79.52
75170;SHT31;63749;49.186;9.222;2023-03-15T08:06:40;4.86;79.87
75170;SHT31;63749;49.186;9.222;2023-03-15T08:09:05;4.89;77.14
75170;SHT31;63749;49.186;9.222;2023-03-15T08:11:32;5.05;78.88
75170;SHT31;63749;49.186;9.222;2023-03-15T08:13:57;4.98;77.30
75170;SHT31;63749;49.186;9.222;2023-03-15T08:16:22;5.02;76.87
75170;SHT31;63749;49.186;9.222;2023-03-15T08:18:48;5.20;76.61
75170;SHT31;63749;49.186;9.222;2023-03-15T08:21:13;5.47;75.96
75170;SHT31;63749;49.186;9.222;2023-03-15T08:23:38;5.93;76.88
75170;SHT31;63749;49.186;9.222;2023-03-15T08:26:04;6.04;75.57
75170;SHT31;63749;49.186;9.222;2023-03-15T08:28:33;5.99;75.29
75170;SHT31;63749;49.186;9.222;2023-03-15T08:30:58;6.05;74.99
75170;SHT31;63749;49.186;9.222;2023-03-15T08:33:24;6.02;73.97
75170;SHT31;63749;49.186;9.222;2023-03-15T08:35:52;5.87;73.47
75170;SHT31;63749;49.186;9.222;2023-03-15T08:38:18;6.08;76.73
75170;SHT31;63749;49.186;9.222;2023-03-15T08:40:43;6.33;75.55
75170;SHT31;63749;49.186;9.222;2023-03-15T08:43:08;6.36;72.76
75170;SHT31;63749;49.186;9.222;2023-03-15T08:45:34;6.42;72.02
75170;SHT31;63749;49.186;9.222;2023-03-15T08:47:59;6.50;72.52
75170;SHT31;63749;49.186;9.222;2023-03-15T08:50:27;6.33;70.98
75170;SHT31;63749;49.186;9.222;2023-03-15T08:52:52;6.09;72.37
75170;SHT31;63749;49.186;9.222;2023-03-15T08:55:18;5.98;74.24
75170;SHT31;63749;49.186;9.222;2023-03-15T08:57:44;6.05;73.22
75170;SHT31;63749;49.186;9.222;2023-03-15T09:00:10;6.02;72.83
75170;SHT31;63749;49.186;9.222;2023-03-15T09:02:44;6.01;72.09
75170;SHT31;63749;49.186;9.222;2023-03-15T09:05:09;6.19;72.39
75170;SHT31;63749;49.186;9.222;2023-03-15T09:07:36;6.29;70.62
75170;SHT31;63749;49.186;9.222;2023-03-15T09:10:02;6.24;67.09
75170;SHT31;63749;49.186;9.222;2023-03-15T09:12:28;6.30;66.04
75170;SHT31;63749;49.186;9.222;2023-03-15T09:14:54;6.54;65.98
75170;SHT31;63749;49.186;9.222;2023-03-15T09:17:19;6.70;66.68
75170;SHT31;63749;49.186;9.222;2023-03-15T09:19:45;6.85;66.97
75170;SHT31;63749;49.186;9.222;2023-03-15T09:22:10;6.88;65.80
75170;SHT31;63749;49.186;9.222;2023-03-15T09:24:36;7.18;65.52
75170;SHT31;63749;49.186;9.222;2023-03-15T09:27:02;7.18;62.28
75170;SHT31;63749;49.186;9.222;2023-03-15T09:29:27;7.14;62.05
75170;SHT31;63749;49.186;9.222;2023-03-15T09:31:53;6.95;62.30
75170;SHT31;63749;49.186;9.222;2023-03-15T09:34:19;6.69;62.64
75170;SHT31;63749;49.186;9.222;2023-03-15T09:36:44;6.57;62.16
75170;SHT31;63749;49.186;9.222;2023-03-15T09:39:12;6.45;61.29
75170;SHT31;63749;49.186;9.222;2023-03-15T09:41:46;6.32;62.76
75170;SHT31;63749;49.186;9.222;2023-03-15T09:44:28;6.16;62.99
75170;SHT31;63749;49.186;9.222;2023-03-15T09:46:59;6.02;62.96
75170;SHT31;63749;49.186;9.222;2023-03-15T09:54:50;5.53;68.64
75170;SHT31;63749;49.186;9.222;2023-03-15T09:57:24;5.50;69.44
75170;SHT31;63749;49.186;9.222;2023-03-15T09:59:55;5.42;70.84
75170;SHT31;63749;49.186;9.222;2023-03-15T10:02:26;5.43;69.86
75170;SHT31;63749;49.186;9.222;2023-03-15T10:04:57;5.39;68.89
75170;SHT31;63749;49.186;9.222;2023-03-15T10:07:23;5.47;68.61
75170;SHT31;63749;49.186;9.222;2023-03-15T10:09:49;5.57;67.83
75170;SHT31;63749;49.186;9.222;2023-03-15T10:12:22;5.61;69.01
75170;SHT31;63749;49.186;9.222;2023-03-15T10:15:28;5.87;66.47
75170;SHT31;63749;49.186;9.222;2023-03-15T10:21:09;5.64;64.62
75170;SHT31;63749;49.186;9.222;2023-03-15T10:23:53;5.87;65.80
75170;SHT31;63749;49.186;9.222;2023-03-15T10:26:24;6.01;65.97
75170;SHT31;63749;49.186;9.222;2023-03-15T10:28:52;6.33;65.98
75170;SHT31;63749;49.186;9.222;2023-03-15T10:31:22;6.43;65.39
75170;SHT31;63749;49.186;9.222;2023-03-15T10:33:49;6.37;66.88
75170;SHT31;63749;49.186;9.222;2023-03-15T10:36:18;6.11;65.90
75170;SHT31;63749;49.186;9.222;2023-03-15T10:38:44;5.94;68.61
75170;SHT31;63749;49.186;9.222;2023-03-15T10:41:27;5.77;67.93
75170;SHT31;63749;49.186;9.222;2023-03-15T10:44:19;5.54;70.16
75170;SHT31;63749;49.186;9.222;2023-03-15T10:49:32;5.19;72.92
75170;SHT31;63749;49.186;9.222;2023-03-15T10:51:58;5.00;74.39
75170;SHT31;63749;49.186;9.222;2023-03-15T10:54:24;5.00;75.84
75170;SHT31;63749;49.186;9.222;2023-03-15T10:59:24;4.81;77.41
75170;SHT31;63749;49.186;9.222;2023-03-15T11:02:11;4.67;78.35
75170;SHT31;63749;49.186;9.222;2023-03-15T11:04:46;4.32;80.82
75170;SHT31;63749;49.186;9.222;2023-03-15T11:07:12;4.24;82.13
75170;SHT31;63749;49.186;9.222;2023-03-15T11:12:08;4.33;82.93
75170;SHT31;63749;49.186;9.222;2023-03-15T11:14:40;4.36;82.18
75170;SHT31;63749;49.186;9.222;2023-03-15T11:17:14;4.53;83.92
75170;SHT31;63749;49.186;9.222;2023-03-15T11:19:47;4.51;82.96
75170;SHT31;63749;49.186;9.222;2023-03-15T11:22:14;4.40;83.05
75170;SHT31;63749;49.186;9.222;2023-03-15T11:24:40;4.46;83.48
75170;SHT31;63749;49.186;9.222;2023-03-15T11:27:12;4.54;82.94
75170;SHT31;63749;49.186;9.222;2023-03-15T11:29:42;4.67;81.28
75170;SHT31;63749;49.186;9.222;2023-03-15T11:32:20;4.67;82.20
75170;SHT31;63749;49.186;9.222;2023-03-15T11:35:01;4.71;82.54
75170;SHT31;63749;49.186;9.222;2023-03-15T11:37:38;4.88;81.51
75170;SHT31;63749;49.186;9.222;2023-03-15T11:40:19;4.84;81.83
75170;SHT31;63749;49.186;9.222;2023-03-15T11:45:41;4.99;81.20
75170;SHT31;63749;49.186;9.222;2023-03-15T11:50:53;5.25;81.60
75170;SHT31;63749;49.186;9.222;2023-03-15T11:53:19;5.44;80.75
75170;SHT31;63749;49.186;9.222;2023-03-15T11:55:49;5.46;79.74
75170;SHT31;63749;49.186;9.222;2023-03-15T11:58:33;5.33;78.89
75170;SHT31;63749;49.186;9.222;2023-03-15T12:01:05;5.50;79.84
75170;SHT31;63749;49.186;9.222;2023-03-15T12:03:37;5.37;80.07
75170;SHT31;63749;49.186;9.222;2023-03-15T12:11:13;5.37;78.49
75170;SHT31;63749;49.186;9.222;2023-03-15T12:16:28;5.43;79.27
75170;SHT31;63749;49.186;9.222;2023-03-15T12:19:14;5.50;80.08
75170;SHT31;63749;49.186;9.222;2023-03-15T12:21:45;5.68;79.20
75170;SHT31;63749;49.186;9.222;2023-03-15T12:24:22;5.93;77.99
75170;SHT31;63749;49.186;9.222;2023-03-15T12:27:04;5.95;78.80
75170;SHT31;63749;49.186;9.222;2023-03-15T12:29:32;5.60;78.35
75170;SHT31;63749;49.186;9.222;2023-03-15T12:32:04;5.84;79.15
75170;SHT31;63749;49.186;9.222;2023-03-15T12:34:56;6.40;78.47
75170;SHT31;63749;49.186;9.222;2023-03-15T12:37:38;6.84;77.48
75170;SHT31;63749;49.186;9.222;2023-03-15T12:53:11;6.66;74.60
75170;SHT31;63749;49.186;9.222;2023-03-15T12:55:44;6.67;76.55
75170;SHT31;63749;49.186;9.222;2023-03-15T12:58:11;6.64;77.12
75170;SHT31;63749;49.186;9.222;2023-03-15T13:00:39;6.70;76.60
75170;SHT31;63749;49.186;9.222;2023-03-15T13:03:18;6.64;75.48
75170;SHT31;63749;49.186;9.222;2023-03-15T13:06:51;6.73;75.32
75170;SHT31;63749;49.186;9.222;2023-03-15T13:12:11;6.77;74.94
75170;SHT31;63749;49.186;9.222;2023-03-15T13:14:59;6.88;74.07
75170;SHT31;63749;49.186;9.222;2023-03-15T13:23:14;6.28;77.32
75170;SHT31;63749;49.186;9.222;2023-03-15T13:28:46;6.24;76.40
75170;SHT31;63749;49.186;9.222;2023-03-15T13:33:54;6.21;76.15
75170;SHT31;63749;49.186;9.222;2023-03-15T13:36:46;6.01;76.82
75170;SHT31;63749;49.186;9.222;2023-03-15T13:39:22;6.21;77.79
75170;SHT31;63749;49.186;9.222;2023-03-15T13:41:49;6.37;77.65
75170;SHT31;63749;49.186;9.222;2023-03-15T13:44:24;6.32;77.60
75170;SHT31;63749;49.186;9.222;2023-03-15T13:46:51;6.28;78.70
75170;SHT31;63749;49.186;9.222;2023-03-15T13:49:17;6.21;78.70
75170;SHT31;63749;49.186;9.222;2023-03-15T13:51:47;6.16;79.49
75170;SHT31;63749;49.186;9.222;2023-03-15T13:54:32;5.75;81.55
75170;SHT31;63749;49.186;9.222;2023-03-15T13:57:02;5.35;82.63
75170;SHT31;63749;49.186;9.222;2023-03-15T14:00:00;5.15;83.77
75170;SHT31;63749;49.186;9.222;2023-03-15T14:02:36;5.42;83.70
75170;SHT31;63749;49.186;9.222;2023-03-15T14:05:17;6.90;79.75
75170;SHT31;63749;49.186;9.222;2023-03-15T14:07:46;8.96;74.06
75170;SHT31;63749;49.186;9.222;2023-03-15T14:12:48;11.73;61.19
75170;SHT31;63749;49.186;9.222;2023-03-15T14:18:00;13.81;56.77
75170;SHT31;63749;49.186;9.222;2023-03-15T14:20:44;15.08;52.45
75170;SHT31;63749;49.186;9.222;2023-03-15T14:23:12;15.63;48.81
75170;SHT31;63749;49.186;9.222;2023-03-15T14:25:39;16.13;48.30
75170;SHT31;63749;49.186;9.222;2023-03-15T14:28:05;16.21;44.74
75170;SHT31;63749;49.186;9.222;2023-03-15T14:30:36;14.16;50.32
75170;SHT31;63749;49.186;9.222;2023-03-15T14:33:04;14.75;49.13
75170;SHT31;63749;49.186;9.222;2023-03-15T14:40:53;12.89;51.94
75170;SHT31;63749;49.186;9.222;2023-03-15T14:43:18;11.05;56.67
75170;SHT31;63749;49.186;9.222;2023-03-15T14:45:46;10.30;58.96
75170;SHT31;63749;49.186;9.222;2023-03-15T14:48:17;11.69;56.16
75170;SHT31;63749;49.186;9.222;2023-03-15T14:50:46;12.96;52.36
75170;SHT31;63749;49.186;9.222;2023-03-15T14:53:15;14.25;49.56
75170;SHT31;63749;49.186;9.222;2023-03-15T14:55:41;13.13;52.09
75170;SHT31;63749;49.186;9.222;2023-03-15T14:58:12;12.44;53.13
75170;SHT31;63749;49.186;9.222;2023-03-15T15:00:38;11.15;57.44
75170;SHT31;63749;49.186;9.222;2023-03-15T15:03:08;11.26;57.39
75170;SHT31;63749;49.186;9.222;2023-03-15T15:05:37;10.05;61.02
75170;SHT31;63749;49.186;9.222;2023-03-15T15:08:05;10.64;60.60
75170;SHT31;63749;49.186;9.222;2023-03-15T15:10:36;10.92;58.70
75170;SHT31;63749;49.186;9.222;2023-03-15T15:13:04;11.69;57.13
75170;SHT31;63749;49.186;9.222;2023-03-15T15:15:30;11.69;57.87
75170;SHT31;63749;49.186;9.222;2023-03-15T15:17:56;11.00;58.60
75170;SHT31;63749;49.186;9.222;2023-03-15T15:20:22;11.46;58.87
75170;SHT31;63749;49.186;9.222;2023-03-15T15:22:51;10.74;58.91
75170;SHT31;63749;49.186;9.222;2023-03-15T15:25:23;11.94;56.08
75170;SHT31;63749;49.186;9.222;2023-03-15T15:27:49;12.79;53.56
75170;SHT31;63749;49.186;9.222;2023-03-15T15:30:21;11.01;59.15
75170;SHT31;63749;49.186;9.222;2023-03-15T15:32:47;11.79;57.44
75170;SHT31;63749;49.186;9.222;2023-03-15T15:35:16;11.77;57.02
75170;SHT31;63749;49.186;9.222;2023-03-15T15:37:45;13.03;53.03
75170;SHT31;63749;49.186;9.222;2023-03-15T15:40:16;13.83;51.02
75170;SHT31;63749;49.186;9.222;2023-03-15T15:42:43;13.14;52.82
75170;SHT31;63749;49.186;9.222;2023-03-15T15:45:16;13.59;50.62
75170;SHT31;63749;49.186;9.222;2023-03-15T15:47:43;11.76;56.55
75170;SHT31;63749;49.186;9.222;2023-03-15T15:50:11;10.36;60.00
75170;SHT31;63749;49.186;9.222;2023-03-15T15:52:38;9.88;61.79
75170;SHT31;63749;49.186;9.222;2023-03-15T15:55:10;9.65;62.26
75170;SHT31;63749;49.186;9.222;2023-03-15T15:57:36;9.43;62.79
75170;SHT31;63749;49.186;9.222;2023-03-15T16:00:01;8.99;64.82
75170;SHT31;63749;49.186;9.222;2023-03-15T16:02:27;8.80;65.50
75170;SHT31;63749;49.186;9.222;2023-03-15T16:04:52;8.68;66.55
75170;SHT31;63749;49.186;9.222;2023-03-15T16:07:19;8.20;67.80
75170;SHT31;63749;49.186;9.222;2023-03-15T16:09:45;8.11;67.49
75170;SHT31;63749;49.186;9.222;2023-03-15T16:12:15;7.91;68.44
75170;SHT31;63749;49.186;9.222;2023-03-15T16:14:43;8.17;66.53
75170;SHT31;63749;49.186;9.222;2023-03-15T16:17:20;8.33;65.97
75170;SHT31;63749;49.186;9.222;2023-03-15T16:19:46;8.21;65.83
75170;SHT31;63749;49.186;9.222;2023-03-15T16:22:11;7.98;67.49
75170;SHT31;63749;49.186;9.222;2023-03-15T16:24:38;7.63;69.43
75170;SHT31;63749;49.186;9.222;2023-03-15T16:27:12;7.34;70.34
75170;SHT31;63749;49.186;9.222;2023-03-15T16:29:43;6.93;70.96
75170;SHT31;63749;49.186;9.222;2023-03-15T16:32:17;6.73;71.62
75170;SHT31;63749;49.186;9.222;2023-03-15T16:34:44;6.45;72.89
75170;SHT31;63749;49.186;9.222;2023-03-15T16:37:16;6.47;72.61
75170;SHT31;63749;49.186;9.222;2023-03-15T16:39:47;7.21;70.91
75170;SHT31;63749;49.186;9.222;2023-03-15T16:42:17;7.65;69.39
75170;SHT31;63749;49.186;9.222;2023-03-15T16:44:43;7.61;68.16
75170;SHT31;63749;49.186;9.222;2023-03-15T16:47:09;7.74;67.27
75170;SHT31;63749;49.186;9.222;2023-03-15T16:49:35;7.66;67.81
75170;SHT31;63749;49.186;9.222;2023-03-15T16:52:01;7.52;68.51
75170;SHT31;63749;49.186;9.222;2023-03-15T16:54:28;7.46;68.13
75170;SHT31;63749;49.186;9.222;2023-03-15T16:56:54;7.24;68.86
75170;SHT31;63749;49.186;9.222;2023-03-15T16:59:21;6.98;69.33
75170;SHT31;63749;49.186;9.222;2023-03-15T17:01:46;6.90;69.59
75170;SHT31;63749;49.186;9.222;2023-03-15T17:04:13;6.97;68.70
75170;SHT31;63749;49.186;9.222;2023-03-15T17:06:40;6.80;69.19
75170;SHT31;63749;49.186;9.222;2023-03-15T17:09:20;6.57;68.86